Time;durP1;ratioP1;P1;durP2;ratioP2;P2;SDS_P1;SDS_P2;PMS_P1;PMS_P2;Temp;Humidity;BMP_temperature;BMP_pressure;BME280_temperature;BME280_humidity;BME280_pressure;Samples;Min_cycle;Max_cycle;Signal;HPM_P1;HPM_P2
2021/11/08 00:00:38;;;;;;;;;;;;;;;4.99;100.00;98936.52;1639822;86;20084;-76
2021/11/08 00:03:08;;;;;;;;;;;;;;;4.91;100.00;98935.83;1639973;87;20220;-74
2021/11/08 00:05:37;;;;;;;;;;;;;;;4.87;100.00;98934.66;1608143;89;20665;-72
2021/11/08 00:08:05;;;;;;;;;;;;;;;4.79;100.00;98931.03;1617800;87;20132;-73
2021/11/08 00:10:34;;;;;;;;;;;;;;;4.73;100.00;98926.66;1672454;85;21158;-73
2021/11/08 00:13:05;;;;;;;;;;;;;;;4.73;100.00;98925.33;1671795;85;20418;-75
2021/11/08 00:15:44;;;;;;;;;;;;;;;4.68;100.00;98922.02;1672505;85;20133;-73
2021/11/08 00:18:09;;;;;;;;;;;;;;;4.66;100.00;98919.31;1673113;84;20655;-75
2021/11/08 00:20:46;;;;;;;;;;;;;;;4.66;100.00;98925.95;1671726;86;20188;-74
2021/11/08 00:23:08;;;;;;;;;;;;;;;4.64;100.00;98926.70;1636801;86;21179;-74
2021/11/08 00:25:31;;;;;;;;;;;;;;;4.62;100.00;98912.83;1641425;86;20216;-76
2021/11/08 00:27:58;;;;;;;;;;;;;;;4.58;100.00;98913.81;1595442;89;20176;-73
2021/11/08 00:30:27;;;;;;;;;;;;;;;4.56;100.00;98926.52;1676079;85;20128;-73
2021/11/08 00:32:54;;;;;;;;;;;;;;;4.53;100.00;98933.61;1676017;85;20168;-73
2021/11/08 00:35:20;;;;;;;;;;;;;;;4.48;100.00;98930.83;1676102;85;22186;-73
2021/11/08 00:37:47;;;;;;;;;;;;;;;4.47;100.00;98934.01;1675033;85;20105;-75
2021/11/08 00:40:14;;;;;;;;;;;;;;;4.49;100.00;98939.11;1675357;85;20255;-73
2021/11/08 00:42:40;;;;;;;;;;;;;;;4.46;100.00;98924.43;1675901;85;20170;-74
2021/11/08 00:45:07;;;;;;;;;;;;;;;4.43;100.00;98928.05;1676200;85;20109;-74
2021/11/08 00:47:35;;;;;;;;;;;;;;;4.45;100.00;98936.08;1674879;85;21141;-73
2021/11/08 00:50:04;;;;;;;;;;;;;;;4.45;100.00;98931.29;1672200;85;20121;-73
2021/11/08 00:52:32;;;;;;;;;;;;;;;4.47;100.00;98930.02;1675902;85;20161;-75
2021/11/08 00:54:59;;;;;;;;;;;;;;;4.46;100.00;98937.72;1675608;85;20133;-72
2021/11/08 00:57:30;;;;;;;;;;;;;;;4.45;100.00;98935.28;1674945;85;20101;-72
2021/11/08 00:59:57;;;;;;;;;;;;;;;4.47;100.00;98933.20;1676042;85;22372;-73
2021/11/08 01:02:27;;;;;;;;;;;;;;;4.46;100.00;98933.73;1675928;85;20097;-73
2021/11/08 01:04:55;;;;;;;;;;;;;;;4.43;100.00;98924.06;1675294;85;20176;-75
2021/11/08 01:07:21;;;;;;;;;;;;;;;4.41;100.00;98918.99;1675208;85;20129;-74
2021/11/08 01:09:48;;;;;;;;;;;;;;;4.39;100.00;98929.03;1675633;85;21209;-74
2021/11/08 01:12:15;;;;;;;;;;;;;;;4.41;100.00;98919.48;1673509;85;22141;-73
2021/11/08 01:14:44;;;;;;;;;;;;;;;4.38;100.00;98915.44;1674213;85;20125;-74
2021/11/08 01:17:10;;;;;;;;;;;;;;;4.36;100.00;98909.58;1671149;85;20165;-74
2021/11/08 01:19:36;;;;;;;;;;;;;;;4.34;100.00;98907.66;1673711;85;20758;-75
2021/11/08 01:22:06;;;;;;;;;;;;;;;4.33;100.00;98909.20;1671305;85;20475;-74
2021/11/08 01:24:36;;;;;;;;;;;;;;;4.26;100.00;98902.66;1648873;87;21171;-74
2021/11/08 01:27:04;;;;;;;;;;;;;;;4.22;100.00;98905.50;1669058;85;20130;-73
2021/11/08 01:29:32;;;;;;;;;;;;;;;4.20;100.00;98912.36;1676169;85;20101;-74
2021/11/08 01:32:01;;;;;;;;;;;;;;;4.20;100.00;98912.89;1676113;85;20145;-74
2021/11/08 01:34:30;;;;;;;;;;;;;;;4.21;100.00;98917.15;1676804;85;20109;-72
2021/11/08 01:37:00;;;;;;;;;;;;;;;4.19;100.00;98914.73;1676455;85;21178;-74
2021/11/08 01:39:38;;;;;;;;;;;;;;;4.18;100.00;98922.40;1675921;85;20154;-73
2021/11/08 01:42:06;;;;;;;;;;;;;;;4.19;100.00;98910.75;1676662;85;20105;-74
2021/11/08 01:44:34;;;;;;;;;;;;;;;4.19;100.00;98917.89;1676969;85;20523;-72
2021/11/08 01:47:01;;;;;;;;;;;;;;;4.18;100.00;98915.76;1648625;85;20117;-74
2021/11/08 01:49:28;;;;;;;;;;;;;;;4.22;100.00;98909.48;1675570;85;21534;-73
2021/11/08 01:51:56;;;;;;;;;;;;;;;4.24;100.00;98915.39;1673818;85;20185;-73
2021/11/08 01:54:23;;;;;;;;;;;;;;;4.29;100.00;98919.49;1675989;85;20125;-74
2021/11/08 01:56:52;;;;;;;;;;;;;;;4.28;100.00;98906.70;1676540;85;20153;-74
2021/11/08 01:59:20;;;;;;;;;;;;;;;4.30;100.00;98909.14;1675643;85;20097;-74
2021/11/08 02:01:47;;;;;;;;;;;;;;;4.31;100.00;98912.08;1676265;85;22006;-73
2021/11/08 02:04:13;;;;;;;;;;;;;;;4.32;100.00;98911.06;1676055;85;20792;-73
2021/11/08 02:06:41;;;;;;;;;;;;;;;4.35;100.00;98911.13;1675789;85;20443;-74
2021/11/08 02:09:08;;;;;;;;;;;;;;;4.38;100.00;98921.28;1674877;85;20152;-75
2021/11/08 02:11:35;;;;;;;;;;;;;;;4.42;100.00;98920.60;1675777;85;20543;-72
2021/11/08 02:14:03;;;;;;;;;;;;;;;4.43;100.00;98924.06;1651732;85;21152;-74
2021/11/08 02:16:30;;;;;;;;;;;;;;;4.44;100.00;98916.40;1674852;85;20434;-75
2021/11/08 02:18:57;;;;;;;;;;;;;;;4.46;100.00;98915.66;1674027;85;20181;-74
2021/11/08 02:21:25;;;;;;;;;;;;;;;4.47;100.00;98916.73;1673486;85;20243;-74
2021/11/08 02:23:52;;;;;;;;;;;;;;;4.46;100.00;98912.47;1675410;85;20148;-77
2021/11/08 02:26:19;;;;;;;;;;;;;;;4.46;100.00;98911.67;1649234;85;21172;-75
2021/11/08 02:28:49;;;;;;;;;;;;;;;4.48;100.00;98917.54;1629953;86;20508;-73
2021/11/08 02:31:19;;;;;;;;;;;;;;;4.44;100.00;98916.40;1586968;89;20111;-75
2021/11/08 02:33:48;;;;;;;;;;;;;;;4.45;100.00;98924.13;1604571;89;20711;-75
2021/11/08 02:36:16;;;;;;;;;;;;;;;4.46;100.00;98914.33;1644086;87;20414;-75
2021/11/08 02:38:47;;;;;;;;;;;;;;;4.47;100.00;98922.58;1643242;87;21154;-74
2021/11/08 02:41:11;;;;;;;;;;;;;;;4.46;100.00;98919.64;1643167;87;20436;-75
2021/11/08 02:43:39;;;;;;;;;;;;;;;4.46;100.00;98915.12;1643281;87;20110;-76
2021/11/08 02:46:15;;;;;;;;;;;;;;;4.48;100.00;98910.40;1642797;86;20420;-74
2021/11/08 02:48:42;;;;;;;;;;;;;;;4.53;100.00;98926.16;1642751;86;20131;-70
2021/11/08 02:51:15;;;;;;;;;;;;;;;4.50;100.00;98920.26;1642802;87;21188;-74
2021/11/08 02:53:42;;;;;;;;;;;;;;;4.51;100.00;98923.75;1643557;86;20464;-75
2021/11/08 02:56:10;;;;;;;;;;;;;;;4.53;100.00;98918.19;1632035;86;20441;-74
2021/11/08 02:58:38;;;;;;;;;;;;;;;4.57;100.00;98912.18;1603765;89;20138;-75
2021/11/08 03:01:07;;;;;;;;;;;;;;;4.57;100.00;98916.17;1631514;86;20105;-75
2021/11/08 03:03:39;;;;;;;;;;;;;;;4.59;100.00;98921.27;1625332;87;21158;-73
2021/11/08 03:06:14;;;;;;;;;;;;;;;4.59;100.00;98913.30;1629281;86;20155;-74
2021/11/08 03:08:35;;;;;;;;;;;;;;;4.57;100.00;98912.70;1603699;89;20438;-75
2021/11/08 03:11:04;;;;;;;;;;;;;;;4.57;100.00;98914.03;1637996;86;20128;-75
2021/11/08 03:13:35;;;;;;;;;;;;;;;4.56;100.00;98911.91;1639247;87;20154;-73
2021/11/08 03:18:52;;;;;;;;;;;;;;;4.55;100.00;98915.58;1631896;86;20120;-75
2021/11/08 03:21:18;;;;;;;;;;;;;;;4.56;100.00;98915.89;1603123;89;20103;-74
2021/11/08 03:23:48;;;;;;;;;;;;;;;4.56;100.00;98912.40;1643291;87;20184;-76
2021/11/08 03:28:43;;;;;;;;;;;;;;;4.66;100.00;98913.99;1618058;88;21207;-74
2021/11/08 03:31:11;;;;;;;;;;;;;;;4.65;100.00;98910.50;1650938;86;20137;-74
2021/11/08 03:33:39;;;;;;;;;;;;;;;4.68;100.00;98911.92;1666722;86;20093;-73
2021/11/08 03:36:08;;;;;;;;;;;;;;;4.69;100.00;98919.64;1666392;86;20110;-74
2021/11/08 03:38:37;;;;;;;;;;;;;;;4.71;100.00;98922.08;1665356;86;20146;-72
2021/11/08 03:41:04;;;;;;;;;;;;;;;4.73;100.00;98927.45;1664806;86;21225;-74
2021/11/08 03:43:30;;;;;;;;;;;;;;;4.76;100.00;98926.71;1655568;86;20129;-75
2021/11/08 03:45:58;;;;;;;;;;;;;;;4.74;100.00;98914.97;1662006;86;20185;-75
2021/11/08 03:48:25;;;;;;;;;;;;;;;4.73;100.00;98914.16;1665384;86;20413;-75
2021/11/08 03:50:52;;;;;;;;;;;;;;;4.69;100.00;98915.66;1665535;86;20093;-73
2021/11/08 03:53:20;;;;;;;;;;;;;;;4.69;100.00;98912.19;1665364;86;21178;-74
2021/11/08 03:55:47;;;;;;;;;;;;;;;4.68;100.00;98907.93;1665400;86;20130;-75
2021/11/08 03:58:14;;;;;;;;;;;;;;;4.67;100.00;98921.72;1665671;86;20200;-74
2021/11/08 04:00:41;;;;;;;;;;;;;;;4.68;100.00;98934.52;1666623;86;20598;-74
2021/11/08 04:03:10;;;;;;;;;;;;;;;4.64;100.00;98920.05;1666486;86;20546;-74
2021/11/08 04:05:37;;;;;;;;;;;;;;;4.63;100.00;98905.13;1666819;86;21163;-74
2021/11/08 04:08:08;;;;;;;;;;;;;;;4.58;100.00;98917.80;1665648;86;20110;-76
2021/11/08 04:10:39;;;;;;;;;;;;;;;4.58;100.00;98914.31;1666755;86;20149;-76
2021/11/08 04:13:06;;;;;;;;;;;;;;;4.57;100.00;98914.03;1664465;86;20806;-74
2021/11/08 04:15:38;;;;;;;;;;;;;;;4.57;100.00;98910.05;1645401;87;20132;-74
2021/11/08 04:18:08;;;;;;;;;;;;;;;4.57;100.00;98912.70;1617363;88;21196;-75
2021/11/08 04:20:39;;;;;;;;;;;;;;;4.53;100.00;98908.88;1666852;85;20762;-75
2021/11/08 04:23:06;;;;;;;;;;;;;;;4.49;100.00;98911.20;1662198;86;20431;-74
2021/11/08 04:25:32;;;;;;;;;;;;;;;4.46;100.00;98916.98;1663858;86;20114;-75
2021/11/08 04:28:03;;;;;;;;;;;;;;;4.49;100.00;98924.48;1673582;85;20121;-75
2021/11/08 04:30:31;;;;;;;;;;;;;;;4.49;100.00;98922.63;1673400;85;21170;-74
2021/11/08 04:41:00;;;;;;;;;;;;;;;4.58;100.00;98934.25;1673671;85;20089;-75
2021/11/08 04:43:44;;;;;;;;;;;;;;;4.58;100.00;98937.74;1650368;85;21228;-75
2021/11/08 04:49:06;;;;;;;;;;;;;;;4.59;100.00;98943.33;1668980;85;20464;-74
2021/11/08 04:51:42;;;;;;;;;;;;;;;4.63;100.00;98954.30;1665041;85;20404;-76
2021/11/08 04:54:11;;;;;;;;;;;;;;;4.62;100.00;98942.86;1672033;84;20121;-75
2021/11/08 05:31:44;;;;;;;;;;;;;;;4.81;100.00;98997.29;1630395;86;20094;-73
2021/11/08 05:34:11;;;;;;;;;;;;;;;4.80;100.00;98996.48;1650854;86;20189;-74
2021/11/08 05:36:39;;;;;;;;;;;;;;;4.84;100.00;98986.98;1637923;86;21200;-74
2021/11/08 05:39:06;;;;;;;;;;;;;;;4.88;100.00;98989.48;1608028;89;20094;-74
2021/11/08 05:41:33;;;;;;;;;;;;;;;4.90;100.00;98996.72;1639546;87;20100;-74
2021/11/08 05:44:02;;;;;;;;;;;;;;;4.95;100.00;98997.36;1638903;87;20441;-75
2021/11/08 05:46:30;;;;;;;;;;;;;;;5.02;100.00;98997.23;1656520;86;20156;-74
2021/11/08 05:48:57;;;;;;;;;;;;;;;5.05;100.00;98997.59;1650876;86;21178;-73
2021/11/08 05:51:23;;;;;;;;;;;;;;;5.08;100.00;99002.97;1622855;88;20148;-75
2021/11/08 05:53:53;;;;;;;;;;;;;;;5.15;100.00;99012.98;1643437;86;20092;-75
2021/11/08 06:51:30;;;;;;;;;;;;;;;5.73;100.00;99042.73;1631204;86;22009;-74
2021/11/08 06:54:02;;;;;;;;;;;;;;;5.78;100.00;99050.83;1644735;85;20246;-74
2021/11/08 06:56:34;;;;;;;;;;;;;;;5.79;100.00;99049.77;1639770;87;21252;-74
2021/11/08 06:59:04;;;;;;;;;;;;;;;5.85;100.00;99044.02;1644653;87;20175;-75
2021/11/08 07:01:35;;;;;;;;;;;;;;;5.88;100.00;99050.23;1643180;87;20135;-74
2021/11/08 07:04:01;;;;;;;;;;;;;;;5.88;100.00;99054.22;1614320;87;20703;-74
2021/11/08 07:06:30;;;;;;;;;;;;;;;5.95;100.00;99052.27;1639146;87;20229;-73
2021/11/08 07:09:03;;;;;;;;;;;;;;;5.98;100.00;99060.31;1637389;87;20111;-73
2021/11/08 07:11:34;;;;;;;;;;;;;;;6.00;100.00;99067.02;1638102;87;20194;-75
2021/11/08 07:14:04;;;;;;;;;;;;;;;6.08;100.00;99063.17;1637284;87;20209;-73
2021/11/08 07:16:38;;;;;;;;;;;;;;;6.13;100.00;99067.27;1638941;87;20443;-75
2021/11/08 07:19:14;;;;;;;;;;;;;;;6.14;100.00;99064.88;1618261;87;20186;-72
2021/11/08 07:21:42;;;;;;;;;;;;;;;6.25;100.00;99079.73;1604285;88;21973;-71
2021/11/08 07:24:11;;;;;;;;;;;;;;;6.30;100.00;99085.99;1644818;87;20197;-72
2021/11/08 07:26:39;;;;;;;;;;;;;;;6.40;100.00;99092.84;1646016;86;20124;-72
2021/11/08 07:29:06;;;;;;;;;;;;;;;6.42;100.00;99083.29;1642944;86;20148;-74
2021/11/08 07:31:34;;;;;;;;;;;;;;;6.48;100.00;99091.66;1645541;87;20133;-74
2021/11/08 07:34:02;;;;;;;;;;;;;;;6.54;100.00;99089.88;1637487;87;21314;-74
2021/11/08 07:36:29;;;;;;;;;;;;;;;6.61;100.00;99107.38;1653368;85;20148;-73
2021/11/08 07:38:56;;;;;;;;;;;;;;;6.69;100.00;99103.52;1652987;86;20217;-74
2021/11/08 07:41:23;;;;;;;;;;;;;;;6.76;100.00;99108.19;1621804;88;20140;-72
2021/11/08 07:43:50;;;;;;;;;;;;;;;6.80;100.00;99111.17;1625113;87;20261;-75
2021/11/08 07:46:16;;;;;;;;;;;;;;;6.81;100.00;99115.44;1625049;87;21226;-75
2021/11/08 07:48:48;;;;;;;;;;;;;;;6.83;100.00;99110.68;1642334;87;20934;-74
2021/11/08 07:51:17;;;;;;;;;;;;;;;6.86;100.00;99117.70;1680035;85;20209;-72
2021/11/08 07:53:44;;;;;;;;;;;;;;;6.98;100.00;99126.14;1682727;84;20238;-76
2021/11/08 07:58:54;;;;;;;;;;;;;;;7.28;100.00;99125.87;1574929;85;20205;-72
2021/11/08 08:01:21;;;;;;;;;;;;;;;7.46;100.00;99128.28;1676174;84;20140;-72
2021/11/08 08:03:50;;;;;;;;;;;;;;;7.60;100.00;99128.77;1673528;85;20177;-75
2021/11/08 08:06:19;;;;;;;;;;;;;;;7.72;100.00;99128.14;1674332;83;20244;-75
2021/11/08 08:08:50;;;;;;;;;;;;;;;7.87;100.00;99128.08;1673707;84;20154;-74
2021/11/08 08:11:23;;;;;;;;;;;;;;;8.00;100.00;99136.27;1678765;84;21162;-74
2021/11/08 08:13:52;;;;;;;;;;;;;;;8.06;100.00;99135.27;1668317;85;20468;-74
2021/11/08 08:16:19;;;;;;;;;;;;;;;8.41;100.00;99152.33;1672350;85;20446;-70
2021/11/08 08:18:47;;;;;;;;;;;;;;;8.32;100.00;99139.87;1670860;84;20227;-76
2021/11/08 08:21:14;;;;;;;;;;;;;;;8.35;100.00;99151.94;1677966;85;20541;-68
2021/11/08 08:23:53;;;;;;;;;;;;;;;8.21;100.00;99134.14;1683213;84;21124;-72
2021/11/08 08:26:19;;;;;;;;;;;;;;;7.99;100.00;99128.78;1676975;85;20498;-72
2021/11/08 08:28:47;;;;;;;;;;;;;;;8.30;100.00;99155.36;1674439;84;20688;-69
2021/11/08 08:31:16;;;;;;;;;;;;;;;9.00;100.00;99149.75;1673962;85;20253;-69
2021/11/08 08:33:44;;;;;;;;;;;;;;;9.16;100.00;99129.30;1668955;85;20118;-75
2021/11/08 08:36:17;;;;;;;;;;;;;;;9.32;100.00;99149.51;1682304;84;20568;-70
2021/11/08 08:38:47;;;;;;;;;;;;;;;9.10;100.00;99151.72;1681746;85;20505;-75
2021/11/08 08:41:17;;;;;;;;;;;;;;;8.94;100.00;99149.44;1682024;83;20184;-72
2021/11/08 08:47:07;;;;;;;;;;;;;;;8.94;100.00;99157.98;1678603;85;20089;-70
2021/11/08 08:49:35;;;;;;;;;;;;;;;8.78;100.00;99137.76;1683139;85;21795;-72
2021/11/08 08:52:05;;;;;;;;;;;;;;;9.37;100.00;99144.98;1684352;85;20200;-75
2021/11/08 08:54:32;;;;;;;;;;;;;;;9.61;100.00;99156.16;1674162;85;20452;-71
2021/11/08 08:57:00;;;;;;;;;;;;;;;9.74;100.00;99171.53;1673615;84;20452;-75
2021/11/08 08:59:31;;;;;;;;;;;;;;;9.78;99.22;99156.55;1670014;84;20534;-71
2021/11/08 09:01:57;;;;;;;;;;;;;;;9.76;97.02;99170.74;1668755;84;21158;-75
2021/11/08 09:04:28;;;;;;;;;;;;;;;9.29;99.38;99171.45;1669407;84;20130;-73
2021/11/08 09:06:55;;;;;;;;;;;;;;;9.02;100.00;99172.27;1663396;85;20161;-72
2021/11/08 09:09:24;;;;;;;;;;;;;;;8.86;100.00;99159.78;1672077;84;20157;-74
2021/11/08 09:11:52;;;;;;;;;;;;;;;8.69;100.00;99170.56;1674697;85;20178;-75
2021/11/08 09:14:21;;;;;;;;;;;;;;;8.59;100.00;99160.02;1675439;85;21150;-75
2021/11/08 09:16:49;;;;;;;;;;;;;;;8.61;100.00;99156.30;1674901;85;20149;-75
2021/11/08 09:19:16;;;;;;;;;;;;;;;8.72;100.00;99164.20;1674841;85;20152;-74
2021/11/08 09:21:45;;;;;;;;;;;;;;;9.06;100.00;99171.22;1675058;85;20167;-74
2021/11/08 09:24:14;;;;;;;;;;;;;;;9.22;100.00;99170.31;1676214;85;20153;-69
2021/11/08 09:26:41;;;;;;;;;;;;;;;9.52;98.91;99170.29;1675713;85;21549;-70
2021/11/08 09:29:13;;;;;;;;;;;;;;;9.33;97.50;99164.50;1642765;85;20122;-72
2021/11/08 09:31:43;;;;;;;;;;;;;;;9.21;96.56;99160.14;1670048;85;20150;-71
2021/11/08 09:34:18;;;;;;;;;;;;;;;9.13;96.91;99162.45;1669258;85;20662;-75
2021/11/08 09:36:44;;;;;;;;;;;;;;;9.08;97.03;99155.71;1672544;85;20181;-73
2021/11/08 09:39:34;;;;;;;;;;;;;;;9.04;97.82;99163.97;1676575;84;21857;-73
2021/11/08 09:41:59;;;;;;;;;;;;;;;8.95;97.42;99156.40;1677836;85;20151;-72
2021/11/08 09:44:30;;;;;;;;;;;;;;;9.03;96.67;99171.20;1674343;84;20228;-72
2021/11/08 09:47:00;;;;;;;;;;;;;;;8.98;94.69;99169.27;1674796;85;20172;-71
2021/11/08 09:49:27;;;;;;;;;;;;;;;8.81;93.54;99180.59;1680725;84;20212;-72
2021/11/08 09:51:56;;;;;;;;;;;;;;;8.74;94.65;99182.12;1685190;84;21105;-72
2021/11/08 09:54:30;;;;;;;;;;;;;;;8.70;93.93;99183.70;1669696;84;20130;-72
2021/11/08 09:56:59;;;;;;;;;;;;;;;8.65;91.76;99191.67;1672683;85;20117;-69
2021/11/08 09:59:27;;;;;;;;;;;;;;;8.80;90.18;99189.17;1663222;85;20204;-71
2021/11/08 10:01:55;;;;;;;;;;;;;;;8.91;89.57;99179.91;1623815;86;20218;-72
2021/11/08 10:04:22;;;;;;;;;;;;;;;9.07;89.94;99188.38;1644486;87;21153;-69
2021/11/08 10:06:49;;;;;;;;;;;;;;;9.66;84.87;99188.36;1675800;84;20134;-73
2021/11/08 10:09:22;;;;;;;;;;;;;;;9.92;83.63;99183.70;1646285;85;20122;-66
2021/11/08 10:11:57;;;;;;;;;;;;;;;9.98;81.91;99196.09;1648650;85;20839;-74
2021/11/08 10:14:24;;;;;;;;;;;;;;;10.53;76.91;99189.42;1672458;85;20173;-72
2021/11/08 10:16:58;;;;;;;;;;;;;;;10.66;74.08;99197.00;1669727;84;21164;-70
2021/11/08 10:19:31;;;;;;;;;;;;;;;10.54;73.64;99150.80;1654108;86;20448;-70
2021/11/08 10:21:59;;;;;;;;;;;;;;;10.57;72.85;99191.86;1651874;85;20177;-74
2021/11/08 10:24:32;;;;;;;;;;;;;;;10.66;72.64;99201.03;1634365;87;20674;-70
2021/11/08 10:27:02;;;;;;;;;;;;;;;10.41;71.75;99192.34;1673246;85;20173;-72
2021/11/08 10:29:43;;;;;;;;;;;;;;;10.27;72.39;99197.88;1688911;85;21167;-75
2021/11/08 10:32:12;;;;;;;;;;;;;;;10.27;72.21;99189.83;1688053;85;20087;-79
2021/11/08 10:34:50;;;;;;;;;;;;;;;10.13;71.89;99200.73;1677768;85;20694;-72
2021/11/08 10:37:29;;;;;;;;;;;;;;;10.09;74.21;99195.90;1680487;83;20192;-70
2021/11/08 10:39:55;;;;;;;;;;;;;;;9.90;75.34;99196.04;1678242;85;20179;-75
2021/11/08 10:42:27;;;;;;;;;;;;;;;9.72;75.60;99187.85;1692236;84;21389;-72
2021/11/08 10:44:56;;;;;;;;;;;;;;;9.56;77.21;99185.60;1658806;85;20199;-72
2021/11/08 10:47:23;;;;;;;;;;;;;;;9.43;78.50;99169.44;1686226;85;20468;-76
2021/11/08 10:49:53;;;;;;;;;;;;;;;9.28;81.02;99184.01;1683576;84;20513;-71
2021/11/08 10:52:21;;;;;;;;;;;;;;;9.25;82.97;99171.13;1671550;85;20217;-73
2021/11/08 10:54:54;;;;;;;;;;;;;;;9.26;83.31;99174.61;1617099;85;21310;-70
2021/11/08 10:57:23;;;;;;;;;;;;;;;9.30;82.62;99170.37;1659672;85;20172;-70
2021/11/08 10:59:52;;;;;;;;;;;;;;;9.36;79.41;99170.71;1680715;85;20186;-69
2021/11/08 11:02:22;;;;;;;;;;;;;;;9.34;79.17;99177.65;1673493;85;20166;-74
2021/11/08 11:04:58;;;;;;;;;;;;;;;9.41;79.63;99167.53;1674186;85;20479;-73
2021/11/08 11:07:34;;;;;;;;;;;;;;;9.24;80.39;99160.16;1673535;85;21154;-73
2021/11/08 11:10:08;;;;;;;;;;;;;;;9.07;81.85;99172.31;1674874;85;20227;-73
2021/11/08 11:12:36;;;;;;;;;;;;;;;9.09;83.79;99174.22;1674506;84;20556;-70
2021/11/08 11:15:10;;;;;;;;;;;;;;;9.07;86.03;99177.67;1668262;85;20832;-68
2021/11/08 11:17:42;;;;;;;;;;;;;;;9.11;87.91;99176.08;1674613;84;20510;-76
2021/11/08 11:20:21;;;;;;;;;;;;;;;9.12;88.65;99181.73;1641409;86;21242;-70
2021/11/08 11:23:04;;;;;;;;;;;;;;;9.19;89.42;99176.18;1638031;87;20108;-68
2021/11/08 11:25:31;;;;;;;;;;;;;;;9.15;90.82;99174.52;1636951;86;20215;-72
2021/11/08 11:28:05;;;;;;;;;;;;;;;9.15;88.90;99177.20;1638662;87;20173;-75
2021/11/08 11:30:38;;;;;;;;;;;;;;;9.13;88.33;99177.98;1634112;86;20263;-72
2021/11/08 11:33:13;;;;;;;;;;;;;;;9.09;88.76;99172.88;1634544;86;21149;-72
2021/11/08 11:35:50;;;;;;;;;;;;;;;9.09;88.79;99180.08;1628782;87;20206;-69
2021/11/08 11:38:25;;;;;;;;;;;;;;;9.20;88.83;99185.81;1633566;86;20235;-75
2021/11/08 11:41:01;;;;;;;;;;;;;;;9.28;88.16;99188.56;1629131;87;20176;-74
2021/11/08 11:43:33;;;;;;;;;;;;;;;9.31;89.72;99185.37;1678869;85;20162;-72
2021/11/08 11:46:00;;;;;;;;;;;;;;;9.23;88.62;99186.64;1669579;85;21030;-74
2021/11/08 11:48:31;;;;;;;;;;;;;;;9.27;89.35;99188.30;1670544;85;20354;-73
2021/11/08 11:50:59;;;;;;;;;;;;;;;9.34;89.64;99185.69;1667277;85;20132;-72
2021/11/08 11:53:32;;;;;;;;;;;;;;;9.25;89.12;99186.41;1670272;83;20553;-75
2021/11/08 11:56:05;;;;;;;;;;;;;;;9.16;89.45;99200.26;1662417;85;20157;-72
2021/11/08 11:58:40;;;;;;;;;;;;;;;9.05;89.30;99202.55;1672027;85;21624;-76
2021/11/08 12:01:12;;;;;;;;;;;;;;;8.98;88.41;99204.07;1663003;85;20155;-75
2021/11/08 12:03:44;;;;;;;;;;;;;;;8.94;89.55;99204.82;1667848;83;20177;-75
2021/11/08 12:06:12;;;;;;;;;;;;;;;8.97;89.25;99200.33;1672760;85;20481;-70
2021/11/08 12:08:39;;;;;;;;;;;;;;;8.88;88.36;99200.48;1674859;85;20191;-74
2021/11/08 12:11:11;;;;;;;;;;;;;;;8.78;89.48;99199.30;1672795;85;21152;-74
2021/11/08 12:13:42;;;;;;;;;;;;;;;8.77;89.81;99199.04;1674641;85;20215;-71
2021/11/08 12:16:18;;;;;;;;;;;;;;;8.75;89.14;99211.05;1674650;85;20184;-70
2021/11/08 12:18:51;;;;;;;;;;;;;;;8.65;89.46;99212.25;1674713;85;20325;-74
2021/11/08 12:21:33;;;;;;;;;;;;;;;8.63;91.33;99203.69;1650920;85;20177;-74
2021/11/08 12:24:06;;;;;;;;;;;;;;;8.58;91.13;99213.80;1668936;85;21217;-75
2021/11/08 12:26:38;;;;;;;;;;;;;;;8.57;91.46;99204.97;1674102;85;20142;-74
2021/11/08 12:29:08;;;;;;;;;;;;;;;8.58;90.36;99221.81;1675061;85;20201;-72
2021/11/08 12:31:35;;;;;;;;;;;;;;;8.57;90.44;99220.18;1672851;85;20141;-73
2021/11/08 12:34:13;;;;;;;;;;;;;;;8.50;90.16;99216.87;1672956;84;20195;-73
2021/11/08 12:36:41;;;;;;;;;;;;;;;8.52;90.89;99222.27;1668335;85;21601;-71
2021/11/08 12:39:10;;;;;;;;;;;;;;;8.52;91.40;99230.82;1672344;85;20494;-73
2021/11/08 12:41:48;;;;;;;;;;;;;;;8.45;91.49;99226.17;1671244;85;20151;-74
2021/11/08 12:44:18;;;;;;;;;;;;;;;8.46;92.01;99225.94;1665641;85;20394;-74
2021/11/08 12:46:48;;;;;;;;;;;;;;;8.40;89.91;99204.19;1664267;85;20169;-70
2021/11/08 12:49:24;;;;;;;;;;;;;;;8.44;89.39;99233.40;1674719;85;22433;-71
2021/11/08 12:52:10;;;;;;;;;;;;;;;8.44;90.13;99225.91;1691973;85;20171;-73
2021/11/08 12:54:47;;;;;;;;;;;;;;;8.43;90.86;99226.45;1692107;84;20148;-73
2021/11/08 12:57:14;;;;;;;;;;;;;;;8.40;90.17;99226.11;1691338;83;20159;-72
2021/11/08 12:59:49;;;;;;;;;;;;;;;8.40;90.85;99238.15;1688290;85;20177;-72
2021/11/08 13:02:32;;;;;;;;;;;;;;;8.38;91.69;99240.52;1672892;85;21154;-71
2021/11/08 13:05:03;;;;;;;;;;;;;;;8.33;92.10;99243.12;1672496;85;20427;-72
2021/11/08 13:07:34;;;;;;;;;;;;;;;8.33;92.88;99247.14;1670757;85;20145;-75
2021/11/08 13:10:02;;;;;;;;;;;;;;;8.34;93.30;99258.64;1671532;85;20141;-70
2021/11/08 13:12:38;;;;;;;;;;;;;;;8.32;93.67;99261.55;1671997;85;20157;-71
2021/11/08 13:15:13;;;;;;;;;;;;;;;8.29;93.54;99266.06;1673420;84;21156;-72
2021/11/08 13:17:48;;;;;;;;;;;;;;;8.28;94.08;99261.78;1671417;85;20158;-71
2021/11/08 13:20:17;;;;;;;;;;;;;;;8.28;94.73;99263.12;1670949;85;20144;-71
2021/11/08 13:22:48;;;;;;;;;;;;;;;8.26;94.25;99263.08;1678902;84;20174;-73
2021/11/08 13:25:27;;;;;;;;;;;;;;;8.25;94.39;99270.80;1682155;85;20494;-72
2021/11/08 13:28:03;;;;;;;;;;;;;;;8.23;94.94;99268.39;1673314;84;21170;-67
2021/11/08 13:30:42;;;;;;;;;;;;;;;8.20;95.40;99267.52;1577903;88;20510;-71
2021/11/08 13:33:12;;;;;;;;;;;;;;;8.16;96.04;99274.44;1596651;90;20149;-74
2021/11/08 13:35:40;;;;;;;;;;;;;;;8.15;96.56;99277.61;1596196;90;20736;-75
2021/11/08 13:38:13;;;;;;;;;;;;;;;8.15;96.85;99280.81;1585746;90;20234;-73
2021/11/08 13:40:49;;;;;;;;;;;;;;;8.13;97.07;99282.42;1582858;90;21103;-74
2021/11/08 13:43:27;;;;;;;;;;;;;;;8.13;97.56;99283.75;1595039;90;20137;-72
2021/11/08 13:46:03;;;;;;;;;;;;;;;8.12;97.51;99288.00;1596549;90;20184;-72
2021/11/08 13:48:33;;;;;;;;;;;;;;;8.08;98.06;99279.64;1596512;90;20784;-73
2021/11/08 13:51:02;;;;;;;;;;;;;;;8.08;98.33;99283.65;1596687;88;20233;-72
2021/11/08 13:53:32;;;;;;;;;;;;;;;8.08;98.77;99280.17;1584211;90;21783;-72
2021/11/08 13:56:01;;;;;;;;;;;;;;;8.06;98.12;99275.59;1593532;90;20170;-71
2021/11/08 13:58:50;;;;;;;;;;;;;;;8.07;98.55;99273.22;1571519;90;20176;-72
2021/11/08 14:01:23;;;;;;;;;;;;;;;8.05;98.92;99279.33;1592226;90;20207;-73
2021/11/08 14:03:57;;;;;;;;;;;;;;;8.05;98.69;99279.33;1596977;90;20169;-68
2021/11/08 14:06:28;;;;;;;;;;;;;;;8.03;97.83;99268.87;1596882;90;21221;-69
2021/11/08 14:08:57;;;;;;;;;;;;;;;8.05;96.41;99284.14;1596708;90;20125;-71
2021/11/08 14:11:30;;;;;;;;;;;;;;;8.06;96.56;99280.44;1596928;90;20226;-72
2021/11/08 14:14:02;;;;;;;;;;;;;;;8.04;95.90;99280.40;1595991;90;20188;-74
2021/11/08 14:16:30;;;;;;;;;;;;;;;8.04;95.38;99280.40;1596916;90;20124;-75
2021/11/08 14:18:57;;;;;;;;;;;;;;;8.03;95.50;99279.56;1596416;90;21770;-69
2021/11/08 14:21:24;;;;;;;;;;;;;;;7.97;95.29;99281.08;1575215;90;20156;-74
2021/11/08 14:23:59;;;;;;;;;;;;;;;7.95;95.19;99283.98;1595352;90;20199;-73
2021/11/08 14:26:26;;;;;;;;;;;;;;;7.89;94.81;99283.11;1610448;86;20221;-73
2021/11/08 14:28:53;;;;;;;;;;;;;;;7.89;95.11;99291.66;1658712;86;20200;-72
2021/11/08 14:31:23;;;;;;;;;;;;;;;7.87;95.06;99291.08;1662558;86;21219;-72
2021/11/08 14:33:52;;;;;;;;;;;;;;;7.85;95.75;99304.67;1662498;86;20487;-74
2021/11/08 14:36:21;;;;;;;;;;;;;;;7.86;96.01;99293.45;1662362;86;20149;-72
2021/11/08 14:38:51;;;;;;;;;;;;;;;7.83;96.48;99312.11;1662592;86;20164;-74
2021/11/08 14:41:18;;;;;;;;;;;;;;;7.78;96.52;99300.54;1662848;86;20179;-70
2021/11/08 14:43:50;;;;;;;;;;;;;;;7.79;96.87;99302.15;1662251;86;21217;-71
2021/11/08 14:46:16;;;;;;;;;;;;;;;7.76;97.58;99319.47;1661901;85;20467;-73
2021/11/08 14:48:45;;;;;;;;;;;;;;;7.75;97.98;99316.53;1660208;86;20197;-70
2021/11/08 14:51:14;;;;;;;;;;;;;;;7.72;98.35;99321.83;1654390;86;20794;-73
2021/11/08 14:53:56;;;;;;;;;;;;;;;7.70;98.49;99329.80;1656119;86;20425;-75
2021/11/08 14:56:25;;;;;;;;;;;;;;;7.69;98.74;99326.83;1653414;86;21195;-71